Time;durP1;ratioP1;P1;durP2;ratioP2;P2;SDS_P1;SDS_P2;PMS_P1;PMS_P2;Temp;Humidity;BMP_temperature;BMP_pressure;BME280_temperature;BME280_humidity;BME280_pressure;Samples;Min_cycle;Max_cycle;Signal;HPM_P1;HPM_P2
2023/10/05 00:02:08;;;;;;;;;;;;;;;22.83;48.77;96592.69;10441593;28;2080;-56
2023/10/05 00:07:11;;;;;;;;;;;;;;;22.82;48.68;96593.72;10443394;28;2008;-54
2023/10/05 00:12:18;;;;;;;;;;;;;;;22.83;48.88;96605.91;10444313;28;1993;-53
2023/10/05 00:17:19;;;;;;;;;;;;;;;22.82;48.57;96599.00;10441144;28;2132;-57
2023/10/05 00:22:20;;;;;;;;;;;;;;;22.81;48.57;96592.16;10445107;28;1904;-56
2023/10/05 00:27:20;;;;;;;;;;;;;;;22.81;48.75;96588.72;10442941;28;1951;-57
2023/10/05 00:32:23;;;;;;;;;;;;;;;22.80;48.57;96595.84;10434766;28;2629;-57
2023/10/05 00:37:26;;;;;;;;;;;;;;;22.79;48.43;96594.28;10442014;28;1995;-56
2023/10/05 00:42:26;;;;;;;;;;;;;;;22.79;48.59;96606.69;10442934;28;4543;-57
2023/10/05 00:47:27;;;;;;;;;;;;;;;22.79;48.43;96588.19;10438699;28;2058;-56
2023/10/05 00:52:33;;;;;;;;;;;;;;;22.79;48.59;96580.25;10439696;28;2060;-54
2023/10/05 00:57:34;;;;;;;;;;;;;;;22.78;48.29;96576.81;10439817;28;2204;-55
2023/10/05 01:03:04;;;;;;;;;;;;;;;22.78;48.44;96571.53;10439306;28;2066;-54
2023/10/05 01:07:58;;;;;;;;;;;;;;;22.76;48.40;96573.66;10443459;28;2093;-56
2023/10/05 01:13:00;;;;;;;;;;;;;;;22.76;48.38;96557.78;10428688;28;2121;-57
2023/10/05 01:18:00;;;;;;;;;;;;;;;22.75;48.39;96540.31;10438697;28;2895;-55
2023/10/05 01:23:01;;;;;;;;;;;;;;;22.76;48.42;96530.56;10440323;28;1916;-55
2023/10/05 01:28:01;;;;;;;;;;;;;;;22.75;48.23;96539.56;10439016;28;1971;-56
2023/10/05 01:33:01;;;;;;;;;;;;;;;22.75;48.47;96539.56;10439652;28;1964;-56
2023/10/05 01:38:02;;;;;;;;;;;;;;;22.74;48.47;96545.88;10436994;28;2148;-56
2023/10/05 01:43:02;;;;;;;;;;;;;;;22.74;48.45;96548.53;10433527;28;1985;-55
2023/10/05 01:48:12;;;;;;;;;;;;;;;22.74;48.08;96549.34;10438578;28;1967;-56
2023/10/05 01:53:15;;;;;;;;;;;;;;;22.73;48.23;96547.72;10440003;28;1967;-54
2023/10/05 01:58:28;;;;;;;;;;;;;;;22.72;48.17;96550.66;10435398;28;2070;-55
2023/10/05 02:03:28;;;;;;;;;;;;;;;22.72;48.02;96537.44;10434881;28;1910;-56
2023/10/05 02:08:33;;;;;;;;;;;;;;;22.71;47.98;96533.22;10440196;28;1951;-56
2023/10/05 02:13:34;;;;;;;;;;;;;;;22.71;47.93;96533.22;10439141;28;1968;-54
2023/10/05 02:18:36;;;;;;;;;;;;;;;22.70;47.92;96537.72;10443627;28;2077;-57
2023/10/05 02:23:41;;;;;;;;;;;;;;;22.70;47.90;96526.34;10434715;28;1924;-57
2023/10/05 02:28:41;;;;;;;;;;;;;;;22.70;47.89;96527.13;10438996;28;1948;-56
2023/10/05 02:33:43;;;;;;;;;;;;;;;22.66;48.10;96520.81;10436900;28;1955;-57
2023/10/05 02:38:49;;;;;;;;;;;;;;;22.67;47.84;96514.44;10438659;28;1966;-57
2023/10/05 02:43:52;;;;;;;;;;;;;;;22.67;47.89;96513.69;10431323;28;4536;-57
2023/10/05 02:48:53;;;;;;;;;;;;;;;22.66;48.03;96515.53;10435178;28;1967;-57
2023/10/05 02:54:03;;;;;;;;;;;;;;;22.65;47.82;96513.94;10436146;28;1977;-55
2023/10/05 02:59:07;;;;;;;;;;;;;;;22.65;47.74;96516.56;10436076;28;2093;-57
2023/10/05 03:09:14;;;;;;;;;;;;;;;22.64;47.61;96513.16;10432996;28;1908;-57
2023/10/05 03:14:17;;;;;;;;;;;;;;;22.64;47.82;96518.44;10438339;28;2150;-56
2023/10/05 03:19:20;;;;;;;;;;;;;;;22.63;47.67;96516.03;10442843;28;1840;-57
2023/10/05 03:24:24;;;;;;;;;;;;;;;22.63;47.60;96516.84;10442919;28;1937;-58
2023/10/05 03:29:24;;;;;;;;;;;;;;;22.62;47.61;96525.84;10441098;28;2592;-57
2023/10/05 03:34:26;;;;;;;;;;;;;;;22.62;47.76;96532.97;10438354;28;6003;-57
2023/10/05 03:39:28;;;;;;;;;;;;;;;22.61;47.61;96526.91;10400110;28;1055410;-55
2023/10/05 03:44:29;;;;;;;;;;;;;;;22.61;47.63;96513.69;10444247;28;5389;-55
2023/10/05 03:49:31;;;;;;;;;;;;;;;22.61;47.57;96529.53;10445918;28;1975;-56
2023/10/05 03:54:33;;;;;;;;;;;;;;;22.61;47.67;96512.88;10442482;28;5401;-55
2023/10/05 03:59:33;;;;;;;;;;;;;;;22.60;47.54;96513.97;10444776;28;1926;-57
2023/10/05 04:04:35;;;;;;;;;;;;;;;22.59;47.53;96507.06;10444993;28;2088;-56
2023/10/05 04:09:38;;;;;;;;;;;;;;;22.58;47.35;96519.50;10442855;28;3351;-57
2023/10/05 04:14:38;;;;;;;;;;;;;;;22.59;47.50;96515.78;10443638;28;1973;-56
2023/10/05 04:19:41;;;;;;;;;;;;;;;22.59;47.28;96504.44;10442362;28;2103;-57
2023/10/05 04:24:41;;;;;;;;;;;;;;;22.58;47.38;96497.56;10441242;28;2503;-56
2023/10/05 04:29:42;;;;;;;;;;;;;;;22.57;47.45;96493.31;10441598;28;2180;-60
2023/10/05 04:34:44;;;;;;;;;;;;;;;22.57;47.63;96507.31;10439447;28;2046;-55
2023/10/05 04:39:44;;;;;;;;;;;;;;;22.57;47.45;96511.81;10442944;28;2032;-56
2023/10/05 04:44:46;;;;;;;;;;;;;;;22.56;47.24;96518.16;10440602;28;4923;-57
2023/10/05 04:49:46;;;;;;;;;;;;;;;22.55;47.32;96511.28;10443409;28;1970;-56
2023/10/05 04:54:51;;;;;;;;;;;;;;;22.54;47.58;96513.16;10443443;28;2032;-57
2023/10/05 05:00:48;;;;;;;;;;;;;;;22.55;47.54;96521.84;10441609;28;1937;-56
2023/10/05 05:10:37;;;;;;;;;;;;;;;22.54;47.33;96513.16;10438114;28;1964;-57
2023/10/05 05:15:38;;;;;;;;;;;;;;;22.53;47.36;96502.81;10440108;28;3344;-57
2023/10/05 05:20:38;;;;;;;;;;;;;;;22.52;47.24;96502.03;10434210;28;2248;-55
2023/10/05 05:25:39;;;;;;;;;;;;;;;22.53;47.16;96500.19;10435245;28;2185;-57
2023/10/05 05:30:40;;;;;;;;;;;;;;;22.52;47.13;96512.59;10442519;28;1967;-57
2023/10/05 05:35:43;;;;;;;;;;;;;;;22.51;47.18;96534.00;10437011;28;2074;-57
2023/10/05 05:40:44;;;;;;;;;;;;;;;22.51;46.89;96526.09;10439072;28;2057;-57
2023/10/05 05:45:44;;;;;;;;;;;;;;;22.50;47.14;96543.00;10437036;28;5102;-57
2023/10/05 05:50:44;;;;;;;;;;;;;;;22.50;47.07;96551.72;10433722;28;2096;-57
2023/10/05 05:55:53;;;;;;;;;;;;;;;22.50;47.05;96553.56;10435423;28;2335;-57
2023/10/05 06:00:54;;;;;;;;;;;;;;;22.49;47.05;96563.34;10432887;28;1924;-57
2023/10/05 06:05:55;;;;;;;;;;;;;;;22.48;47.06;96545.91;10432683;28;1979;-56
2023/10/05 06:10:56;;;;;;;;;;;;;;;22.48;47.19;96555.69;10432154;28;1953;-57
2023/10/05 06:15:56;;;;;;;;;;;;;;;22.48;46.84;96564.38;10433264;28;1993;-57
2023/10/05 06:20:56;;;;;;;;;;;;;;;22.47;46.93;96565.47;10433279;28;1916;-56
2023/10/05 06:25:57;;;;;;;;;;;;;;;22.47;47.07;96556.75;10431997;28;1963;-57
2023/10/05 06:30:57;;;;;;;;;;;;;;;22.46;46.90;96563.88;10431971;28;1972;-57
2023/10/05 06:35:57;;;;;;;;;;;;;;;22.45;46.85;96541.16;10435725;28;1943;-57
2023/10/05 06:40:58;;;;;;;;;;;;;;;22.46;46.93;96540.09;10436709;28;2654;-56
2023/10/05 06:46:09;;;;;;;;;;;;;;;22.45;46.72;96533.22;10434508;28;5219;-55
2023/10/05 06:51:09;;;;;;;;;;;;;;;22.46;46.69;96537.44;10434224;28;1967;-56
2023/10/05 06:56:11;;;;;;;;;;;;;;;22.46;46.79;96532.16;10438444;28;2210;-56
2023/10/05 07:01:11;;;;;;;;;;;;;;;22.46;46.98;96532.16;10438222;28;1814;-57
2023/10/05 07:06:13;;;;;;;;;;;;;;;22.46;47.12;96539.31;10440406;28;1475;-57
2023/10/05 07:11:13;;;;;;;;;;;;;;;22.46;47.13;96539.31;10435155;28;1750;-55
2023/10/05 07:16:14;;;;;;;;;;;;;;;22.46;47.07;96534.03;10439030;28;1888;-57
2023/10/05 07:21:14;;;;;;;;;;;;;;;22.46;47.36;96545.38;10438232;28;1709;-57
2023/10/05 07:26:14;;;;;;;;;;;;;;;22.47;47.19;96556.75;10433410;28;2578;-57
2023/10/05 07:31:15;;;;;;;;;;;;;;;22.46;47.26;96563.88;10439894;28;1507;-56
2023/10/05 07:36:15;;;;;;;;;;;;;;;22.47;47.29;96557.53;10438324;28;1963;-58
2023/10/05 07:41:16;;;;;;;;;;;;;;;22.48;47.36;96553.06;10440150;28;1706;-58
2023/10/05 07:46:17;;;;;;;;;;;;;;;22.48;47.71;96556.47;10437404;28;5178;-58
2023/10/05 07:51:17;;;;;;;;;;;;;;;22.48;47.56;96553.81;10440524;28;1688;-57
2023/10/05 07:56:18;;;;;;;;;;;;;;;22.47;47.52;96554.09;10441766;28;1910;-55
2023/10/05 08:01:18;;;;;;;;;;;;;;;22.48;47.71;96558.34;10447338;28;1451;-58
2023/10/05 08:06:18;;;;;;;;;;;;;;;22.48;47.65;96567.03;10448277;28;1523;-57
2023/10/05 08:11:20;;;;;;;;;;;;;;;22.49;47.62;96573.91;10447164;28;2837;-58
2023/10/05 08:16:22;;;;;;;;;;;;;;;22.48;47.66;96558.34;10447806;28;1909;-57
2023/10/05 08:21:22;;;;;;;;;;;;;;;22.49;47.77;96568.63;10449436;28;1649;-57
2023/10/05 08:26:24;;;;;;;;;;;;;;;22.48;47.43;96588.16;10446783;28;1499;-57
2023/10/05 08:31:24;;;;;;;;;;;;;;;22.49;47.48;96594.25;10446037;28;1491;-57
2023/10/05 08:36:25;;;;;;;;;;;;;;;22.49;47.55;96600.34;10439333;28;1973;-56
2023/10/05 08:41:39;;;;;;;;;;;;;;;22.49;47.82;96591.59;10445475;28;1727;-59
2023/10/05 08:46:43;;;;;;;;;;;;;;;22.49;47.57;96578.41;10444425;28;1459;-56
2023/10/05 08:51:44;;;;;;;;;;;;;;;22.49;47.61;96597.69;10421794;28;1654;-56
2023/10/05 08:56:45;;;;;;;;;;;;;;;22.50;47.75;96599.25;10445890;28;2916;-57
2023/10/05 09:01:50;;;;;;;;;;;;;;;22.50;47.64;96595.84;10446905;28;1565;-56
2023/10/05 09:06:58;;;;;;;;;;;;;;;22.50;47.69;96609.84;10443659;28;1889;-57
2023/10/05 09:12:00;;;;;;;;;;;;;;;22.50;47.84;96607.19;10442425;28;1822;-56
2023/10/05 09:17:04;;;;;;;;;;;;;;;22.54;47.50;96607.47;10444376;28;1945;-56
2023/10/05 09:22:10;;;;;;;;;;;;;;;22.49;46.76;96610.09;10439614;28;1882;-55
2023/10/05 09:27:14;;;;;;;;;;;;;;;22.43;46.03;96601.41;10440401;28;1922;-53
2023/10/05 09:32:22;;;;;;;;;;;;;;;22.37;46.11;96601.66;10441706;28;1833;-56
2023/10/05 09:37:24;;;;;;;;;;;;;;;22.32;45.72;96607.72;10439937;28;2006;-56
2023/10/05 09:42:25;;;;;;;;;;;;;;;22.30;46.31;96607.19;10437378;28;4657;-57
2023/10/05 09:47:26;;;;;;;;;;;;;;;22.36;46.51;96616.72;10437364;28;1831;-55
2023/10/05 09:52:37;;;;;;;;;;;;;;;22.39;46.69;96605.63;10437384;28;1899;-54
2023/10/05 09:57:41;;;;;;;;;;;;;;;22.42;46.68;96610.38;10435676;28;2092;-57
2023/10/05 10:02:44;;;;;;;;;;;;;;;22.44;46.50;96602.97;10433995;28;1875;-55
2023/10/05 10:07:49;;;;;;;;;;;;;;;22.46;46.60;96611.41;10430860;28;1857;-57
2023/10/05 10:12:51;;;;;;;;;;;;;;;22.47;46.59;96610.38;10434978;28;1973;-57
2023/10/05 10:18:03;;;;;;;;;;;;;;;22.49;46.58;96595.06;10428277;28;1933;-54
2023/10/05 10:23:14;;;;;;;;;;;;;;;22.49;46.78;96604.81;10434928;28;1881;-57
2023/10/05 10:28:16;;;;;;;;;;;;;;;22.50;46.72;96591.34;10440350;28;1937;-56
2023/10/05 10:33:35;;;;;;;;;;;;;;;22.51;46.70;96585.00;10438781;28;1923;-56
2023/10/05 10:38:35;;;;;;;;;;;;;;;22.52;46.97;96581.28;10438821;28;1874;-59
2023/10/05 10:43:40;;;;;;;;;;;;;;;22.51;46.74;96574.44;10450969;28;4650;-56
2023/10/05 10:48:53;;;;;;;;;;;;;;;22.53;46.76;96576.81;10437561;28;1861;-57
2023/10/05 10:53:55;;;;;;;;;;;;;;;22.53;46.67;96580.25;10441326;28;1965;-56
2023/10/05 10:59:10;;;;;;;;;;;;;;;22.54;46.74;96571.28;10436980;28;1891;-56
2023/10/05 11:04:26;;;;;;;;;;;;;;;22.55;46.76;96557.00;10435535;28;1869;-57
2023/10/05 11:09:35;;;;;;;;;;;;;;;22.57;46.94;96557.53;10437934;28;2773;-57
2023/10/05 11:14:35;;;;;;;;;;;;;;;22.58;46.86;96559.16;10441744;28;1993;-57
2023/10/05 11:19:36;;;;;;;;;;;;;;;22.58;46.86;96553.88;10420557;28;1905;-57
2023/10/05 11:24:56;;;;;;;;;;;;;;;22.59;46.98;96552.78;10437375;28;1901;-56
2023/10/05 11:29:59;;;;;;;;;;;;;;;22.60;46.88;96537.75;10437311;28;1831;-57
2023/10/05 11:35:05;;;;;;;;;;;;;;;22.60;47.11;96540.38;10435961;28;1906;-55
2023/10/05 11:40:06;;;;;;;;;;;;;;;22.60;47.00;96543.81;10441991;28;1922;-55
2023/10/05 11:45:13;;;;;;;;;;;;;;;22.61;46.84;96542.75;10443973;28;4670;-57
2023/10/05 11:50:24;;;;;;;;;;;;;;;22.60;46.80;96545.66;10446164;28;1865;-57
2023/10/05 11:55:24;;;;;;;;;;;;;;;22.60;46.99;96541.19;10443604;28;2566;-55
2023/10/05 12:00:31;;;;;;;;;;;;;;;22.61;47.10;96539.31;10441146;28;1894;-57
2023/10/05 12:05:34;;;;;;;;;;;;;;;22.62;46.91;96531.13;10447965;28;1909;-57
2023/10/05 12:10:35;;;;;;;;;;;;;;;22.62;46.78;96530.34;10443430;28;2010;-55
2023/10/05 12:15:37;;;;;;;;;;;;;;;22.63;46.80;96545.13;10438453;28;1982;-57
2023/10/05 12:20:37;;;;;;;;;;;;;;;22.63;46.82;96537.97;10437471;28;1911;-57
2023/10/05 12:25:37;;;;;;;;;;;;;;;22.64;47.05;96534.31;10438746;28;2033;-56
2023/10/05 12:30:39;;;;;;;;;;;;;;;22.63;46.88;96543.28;10444008;28;2174;-55
2023/10/05 12:35:41;;;;;;;;;;;;;;;22.65;46.96;96545.63;10442701;28;1902;-57
2023/10/05 12:40:47;;;;;;;;;;;;;;;22.65;46.98;96535.88;10440495;28;2785;-57
2023/10/05 12:45:47;;;;;;;;;;;;;;;22.66;47.40;96536.66;10438763;28;4767;-56
2023/10/05 12:50:48;;;;;;;;;;;;;;;22.65;47.14;96535.88;10442751;28;2006;-56
2023/10/05 12:55:48;;;;;;;;;;;;;;;22.64;47.25;96536.13;10438296;28;1977;-58
2023/10/05 13:00:49;;;;;;;;;;;;;;;22.64;47.36;96533.50;10433987;28;2103;-56
2023/10/05 13:05:51;;;;;;;;;;;;;;;22.64;47.26;96539.59;10436128;28;2093;-54
2023/10/05 13:10:51;;;;;;;;;;;;;;;22.67;47.13;96548.81;10435407;28;1832;-57
2023/10/05 13:15:53;;;;;;;;;;;;;;;22.67;47.42;96559.38;10443647;28;2004;-57
2023/10/05 13:20:55;;;;;;;;;;;;;;;22.66;47.46;96555.16;10441744;28;1877;-57
2023/10/05 13:25:56;;;;;;;;;;;;;;;22.65;47.67;96543.78;10437105;28;2613;-56
2023/10/05 13:30:57;;;;;;;;;;;;;;;22.65;47.65;96549.06;10440067;28;1906;-57
2023/10/05 13:35:57;;;;;;;;;;;;;;;22.64;47.53;96550.16;10436574;28;1972;-56
2023/10/05 13:40:58;;;;;;;;;;;;;;;22.62;47.56;96556.75;10436176;28;1906;-57
2023/10/05 13:46:04;;;;;;;;;;;;;;;22.62;47.49;96557.56;10433666;28;4722;-56
2023/10/05 13:51:05;;;;;;;;;;;;;;;22.61;47.20;96566.53;10432477;28;1865;-57
2023/10/05 13:56:05;;;;;;;;;;;;;;;22.61;47.32;96565.72;10433984;28;1941;-57
2023/10/05 14:01:07;;;;;;;;;;;;;;;22.60;47.21;96566.81;10432199;28;1880;-56
2023/10/05 14:06:07;;;;;;;;;;;;;;;22.59;47.09;96563.38;10433608;28;1829;-56
2023/10/05 14:11:09;;;;;;;;;;;;;;;22.59;47.12;96563.38;10435946;28;2716;-55
2023/10/05 14:16:11;;;;;;;;;;;;;;;22.59;47.43;96562.56;10434666;28;1894;-56
2023/10/05 14:21:16;;;;;;;;;;;;;;;22.58;47.54;96561.78;10434061;28;1933;-56
2023/10/05 14:26:17;;;;;;;;;;;;;;;22.58;47.26;96556.50;10436717;28;1830;-55
2023/10/05 14:31:18;;;;;;;;;;;;;;;22.57;47.24;96578.66;10438596;28;1901;-57
2023/10/05 14:36:20;;;;;;;;;;;;;;;22.57;47.36;96581.31;10439022;28;1910;-57
2023/10/05 14:41:25;;;;;;;;;;;;;;;22.57;47.36;96573.38;10435650;28;2009;-58
2023/10/05 14:46:25;;;;;;;;;;;;;;;22.55;47.40;96577.34;10441222;28;4650;-58
2023/10/05 14:51:27;;;;;;;;;;;;;;;22.55;47.36;96582.63;10436018;28;1889;-57
2023/10/05 14:56:27;;;;;;;;;;;;;;;22.54;47.31;96576.56;10434388;28;2770;-57
2023/10/05 15:01:28;;;;;;;;;;;;;;;22.55;47.60;96572.84;10435353;28;1873;-57
2023/10/05 15:06:29;;;;;;;;;;;;;;;22.54;47.33;96562.56;10440117;28;1897;-57
2023/10/05 15:11:30;;;;;;;;;;;;;;;22.54;47.40;96557.28;10456229;28;2023;-58
2023/10/05 15:16:31;;;;;;;;;;;;;;;22.53;47.29;96559.13;10444592;28;1910;-58
2023/10/05 15:21:31;;;;;;;;;;;;;;;22.52;47.35;96567.31;10449214;28;1885;-58
2023/10/05 15:26:32;;;;;;;;;;;;;;;22.52;47.40;96578.66;10436348;28;1923;-58
2023/10/05 15:31:32;;;;;;;;;;;;;;;22.51;47.35;96548.03;10444425;28;1927;-58
2023/10/05 15:36:32;;;;;;;;;;;;;;;22.51;47.19;96574.44;10446002;28;1938;-57
2023/10/05 15:41:32;;;;;;;;;;;;;;;22.52;47.20;96591.09;10432167;28;4598;-58
2023/10/05 15:46:33;;;;;;;;;;;;;;;22.50;47.31;96591.34;10442297;28;2005;-58
2023/10/05 15:51:33;;;;;;;;;;;;;;;22.49;47.40;96578.41;10440132;28;1882;-57
2023/10/05 15:56:33;;;;;;;;;;;;;;;22.49;47.33;96592.41;10438577;28;2342;-57
2023/10/05 16:01:33;;;;;;;;;;;;;;;22.49;47.34;96604.81;10437667;28;1949;-58
2023/10/05 16:06:34;;;;;;;;;;;;;;;22.48;47.18;96604.03;10447733;28;2053;-57
2023/10/05 16:11:34;;;;;;;;;;;;;;;22.48;47.35;96588.16;10445282;28;1936;-57
2023/10/05 16:16:34;;;;;;;;;;;;;;;22.47;47.34;96599.81;10445373;28;1976;-57
2023/10/05 16:21:34;;;;;;;;;;;;;;;22.47;47.35;96614.88;10442254;28;1927;-58
2023/10/05 16:26:36;;;;;;;;;;;;;;;22.46;47.47;96582.34;10443977;28;2629;-57
2023/10/05 16:31:39;;;;;;;;;;;;;;;22.47;47.42;96617.50;10439558;28;1912;-57
2023/10/05 16:36:39;;;;;;;;;;;;;;;22.46;47.41;96606.13;10441546;28;1922;-57
2023/10/05 16:41:39;;;;;;;;;;;;;;;22.45;47.30;96582.63;10438708;28;4626;-58
2023/10/05 16:46:42;;;;;;;;;;;;;;;22.45;47.30;96566.78;10440285;28;1874;-56
2023/10/05 16:51:43;;;;;;;;;;;;;;;22.44;47.49;96573.13;10438949;28;1900;-57
2023/10/05 16:56:44;;;;;;;;;;;;;;;22.44;47.56;96539.56;10436276;28;1910;-56
2023/10/05 17:01:44;;;;;;;;;;;;;;;22.44;47.22;96557.28;10442205;28;1927;-58
2023/10/05 17:06:44;;;;;;;;;;;;;;;22.43;47.43;96522.16;10433478;28;1902;-61
2023/10/05 17:11:44;;;;;;;;;;;;;;;22.43;47.51;96521.34;10435440;28;1858;-58
2023/10/05 17:16:45;;;;;;;;;;;;;;;22.42;47.32;96493.34;10441940;28;1943;-58
2023/10/05 17:21:45;;;;;;;;;;;;;;;22.42;47.45;96519.78;10439500;28;1962;-58
2023/10/05 17:26:46;;;;;;;;;;;;;;;22.41;47.37;96528.75;10436373;28;2431;-58
2023/10/05 17:31:46;;;;;;;;;;;;;;;22.41;47.27;96565.72;10440802;28;1945;-58
2023/10/05 17:36:47;;;;;;;;;;;;;;;22.41;47.48;96569.16;10440130;28;1898;-58
2023/10/05 17:41:47;;;;;;;;;;;;;;;22.40;47.35;96575.50;10439086;28;4625;-57
2023/10/05 17:46:47;;;;;;;;;;;;;;;22.39;47.46;96552.78;10440404;28;2107;-56
2023/10/05 17:51:48;;;;;;;;;;;;;;;22.39;47.31;96558.06;10440457;28;1898;-58
2023/10/05 17:56:48;;;;;;;;;;;;;;;22.39;47.17;96573.94;10434077;28;1977;-55
2023/10/05 18:01:48;;;;;;;;;;;;;;;22.39;47.29;96591.63;10440283;28;1882;-58
2023/10/05 18:06:48;;;;;;;;;;;;;;;22.38;47.14;96619.88;10438018;28;1893;-57
2023/10/05 18:11:52;;;;;;;;;;;;;;;22.38;47.27;96609.31;10434869;28;1872;-57
2023/10/05 18:16:54;;;;;;;;;;;;;;;22.38;47.39;96605.91;10435876;28;2829;-57
2023/10/05 18:21:55;;;;;;;;;;;;;;;22.38;47.40;96617.22;10436866;28;2226;-56
2023/10/05 18:26:55;;;;;;;;;;;;;;;22.37;47.50;96615.66;10437118;28;1970;-58
2023/10/05 18:31:55;;;;;;;;;;;;;;;22.37;47.44;96615.66;10434862;28;1882;-57
2023/10/05 18:36:55;;;;;;;;;;;;;;;22.36;47.47;96606.13;10433806;28;2016;-58
2023/10/05 18:41:56;;;;;;;;;;;;;;;22.36;47.23;96606.13;10434656;28;4649;-56
2023/10/05 18:46:56;;;;;;;;;;;;;;;22.37;47.44;96620.94;10432483;28;1831;-58
2023/10/05 18:51:57;;;;;;;;;;;;;;;22.37;47.57;96607.75;10436268;28;1851;-58
2023/10/05 18:56:57;;;;;;;;;;;;;;;22.35;47.35;96599.28;10435256;28;1955;-58
2023/10/05 19:01:59;;;;;;;;;;;;;;;22.36;47.36;96606.13;10431810;28;2682;-58
2023/10/05 19:06:59;;;;;;;;;;;;;;;22.35;47.58;96612.50;10435317;28;1874;-57
2023/10/05 19:12:00;;;;;;;;;;;;;;;22.35;47.50;96617.78;10434714;28;1834;-57
2023/10/05 19:17:02;;;;;;;;;;;;;;;22.35;47.30;96617.78;10435171;28;2014;-57
2023/10/05 19:22:03;;;;;;;;;;;;;;;22.34;47.63;96616.19;10431660;28;1901;-57
2023/10/05 19:27:03;;;;;;;;;;;;;;;22.32;47.64;96618.28;10437237;28;1846;-56
2023/10/05 19:32:07;;;;;;;;;;;;;;;22.34;47.31;96624.09;10430999;28;1935;-56
2023/10/05 19:37:07;;;;;;;;;;;;;;;22.33;47.31;96643.66;10433647;28;1906;-58
2023/10/05 19:42:07;;;;;;;;;;;;;;;22.33;47.53;96654.22;10432540;28;4706;-58
2023/10/05 19:47:11;;;;;;;;;;;;;;;22.33;47.49;96659.50;10434573;28;2842;-55
2023/10/05 19:52:11;;;;;;;;;;;;;;;22.32;47.48;96643.91;10431529;28;1873;-58
2023/10/05 19:57:13;;;;;;;;;;;;;;;22.31;47.17;96656.34;10443234;28;1917;-58
2023/10/05 20:02:15;;;;;;;;;;;;;;;22.31;47.50;96664.25;10444649;28;1821;-58
2023/10/05 20:07:15;;;;;;;;;;;;;;;22.31;47.54;96674.84;10444133;28;1881;-58
2023/10/05 20:12:15;;;;;;;;;;;;;;;22.30;47.24;96675.88;10445616;28;1844;-58
2023/10/05 20:17:16;;;;;;;;;;;;;;;22.30;47.55;96678.50;10441616;28;1981;-57
2023/10/05 20:22:16;;;;;;;;;;;;;;;22.30;47.18;96678.50;10443475;28;1894;-58
2023/10/05 20:27:16;;;;;;;;;;;;;;;22.29;47.12;96679.59;10441830;28;1831;-58
2023/10/05 20:32:16;;;;;;;;;;;;;;;22.30;47.34;96680.34;10440779;28;1874;-58
2023/10/05 20:37:17;;;;;;;;;;;;;;;22.28;47.46;96688.53;10440037;28;1975;-58
2023/10/05 20:42:17;;;;;;;;;;;;;;;22.27;47.43;96688.81;10437989;28;4854;-57
2023/10/05 20:47:17;;;;;;;;;;;;;;;22.28;47.31;96687.75;10441170;28;2750;-57
2023/10/05 20:52:18;;;;;;;;;;;;;;;22.27;47.21;96699.38;10441432;28;1902;-58
2023/10/05 20:57:20;;;;;;;;;;;;;;;22.26;47.32;96693.31;10441179;28;1972;-56
2023/10/05 21:02:21;;;;;;;;;;;;;;;22.27;47.07;96694.09;10442322;28;1826;-58
2023/10/05 21:07:21;;;;;;;;;;;;;;;22.26;47.34;96692.50;10442685;28;1922;-56
2023/10/05 21:12:21;;;;;;;;;;;;;;;22.25;47.29;96694.38;10440412;28;1885;-56
2023/10/05 21:17:22;;;;;;;;;;;;;;;22.25;47.26;96690.94;10437419;28;1969;-57
2023/10/05 21:22:22;;;;;;;;;;;;;;;22.25;47.76;96681.16;10435796;28;2147;-55
2023/10/05 21:27:23;;;;;;;;;;;;;;;22.26;47.77;96674.81;10440273;28;1988;-57
2023/10/05 21:32:24;;;;;;;;;;;;;;;22.27;48.05;96686.19;10440700;28;2708;-57
2023/10/05 21:37:24;;;;;;;;;;;;;;;22.26;47.93;96690.66;10434274;28;1977;-55
2023/10/05 21:42:24;;;;;;;;;;;;;;;22.27;47.98;96686.97;10437873;28;1876;-57
2023/10/05 21:47:24;;;;;;;;;;;;;;;22.28;47.90;96690.38;10440917;28;1929;-56
2023/10/05 21:52:25;;;;;;;;;;;;;;;22.28;48.13;96696.47;10434426;28;1875;-57
2023/10/05 21:57:25;;;;;;;;;;;;;;;22.27;47.92;96694.91;10432671;28;1981;-57
2023/10/05 22:02:25;;;;;;;;;;;;;;;22.27;47.97;96694.09;10430405;28;1827;-54
2023/10/05 22:07:26;;;;;;;;;;;;;;;22.26;48.07;96690.66;10444315;28;1850;-55
2023/10/05 22:12:30;;;;;;;;;;;;;;;22.26;47.83;96693.31;10438716;28;1869;-55
2023/10/05 22:17:33;;;;;;;;;;;;;;;22.27;48.19;96694.91;10439418;28;2548;-53
2023/10/05 22:22:33;;;;;;;;;;;;;;;22.27;48.13;96692.25;10436661;28;1915;-57
2023/10/05 22:27:34;;;;;;;;;;;;;;;22.25;47.95;96683.81;10443422;28;2003;-57
2023/10/05 22:32:34;;;;;;;;;;;;;;;22.26;47.87;96692.50;10441609;28;2010;-57
2023/10/05 22:37:35;;;;;;;;;;;;;;;22.25;47.92;96691.72;10443666;28;1894;-57
2023/10/05 22:42:35;;;;;;;;;;;;;;;22.25;48.15;96685.66;10436528;28;4613;-56
2023/10/05 22:47:35;;;;;;;;;;;;;;;22.23;48.01;96691.19;10437824;28;1877;-57
2023/10/05 22:52:36;;;;;;;;;;;;;;;22.24;47.89;96700.69;10440947;28;1905;-57
2023/10/05 22:57:36;;;;;;;;;;;;;;;22.24;48.15;96713.09;10435330;28;1977;-57
2023/10/05 23:02:36;;;;;;;;;;;;;;;22.23;47.85;96695.69;10438414;28;2546;-56
2023/10/05 23:07:39;;;;;;;;;;;;;;;22.21;47.88;96680.09;10433039;28;1922;-57
2023/10/05 23:12:40;;;;;;;;;;;;;;;22.22;48.09;96678.22;10434213;28;1940;-57
2023/10/05 23:17:40;;;;;;;;;;;;;;;22.21;47.81;96695.94;10436691;28;1914;-57
2023/10/05 23:22:41;;;;;;;;;;;;;;;22.21;48.11;96708.34;10438551;28;1897;-57
2023/10/05 23:27:42;;;;;;;;;;;;;;;22.20;47.83;96712.81;10435360;28;1951;-56
2023/10/05 23:32:45;;;;;;;;;;;;;;;22.20;47.86;96712.03;10445396;28;1992;-56
2023/10/05 23:37:52;;;;;;;;;;;;;;;22.19;47.98;96716.53;10438778;28;2034;-57
2023/10/05 23:42:53;;;;;;;;;;;;;;;22.18;47.68;96720.22;10446002;28;4670;-56
2023/10/05 23:47:53;;;;;;;;;;;;;;;22.19;47.74;96721.81;10438826;28;2557;-57
2023/10/05 23:52:56;;;;;;;;;;;;;;;22.17;47.93;96716.00;10443582;28;1811;-57
2023/10/05 23:57:59;;;;;;;;;;;;;;;22.18;47.63;96716.78;10444349;28;1906;-56
